Search for airport 
image banner adimage banner adimage banner ad
image banner ad

PS89 - Press Enterprise

Located in Bloomsburg, United States

ICAO - PS89, IATA -

Data provided by Airmate  

General information

Coordinates: N41°0'43" W76°24'19"
Elevation is 490 feet MSL.
Magnetic variation is -11° East
View others Airports in Pennsylvania

Operational data

Special qualification required
Current time UTC:
Current local time:
Weather at : KHZL - Hazleton Rgnl ( 35 km )
METAR: KHZL 150535Z AUTO 00000KT 1SM BR OVC002 14/13 A2985 RMK AO2
View NOTAMs / SUP AIP / TFR affecting this airport [VIEW]
Communications frequencies: [VIEW]

Runways:

Airport contact information

Address: Bloomsburg United States

Satellite view of PS89